sensor_id;sensor_type;location;lat;lon;timestamp;temperature;humidity
12811;DHT22;6470;47.654;7.896;2023-06-26T00:02:19;17.20;99.90
12811;DHT22;6470;47.654;7.896;2023-06-26T00:07:11;17.00;99.90
12811;DHT22;6470;47.654;7.896;2023-06-26T00:09:36;16.70;99.90
12811;DHT22;6470;47.654;7.896;2023-06-26T00:14:28;16.30;99.90
12811;DHT22;6470;47.654;7.896;2023-06-26T00:16:54;16.30;99.90
12811;DHT22;6470;47.654;7.896;2023-06-26T00:19:20;13.90;99.90
12811;DHT22;6470;47.654;7.896;2023-06-26T00:24:16;13.70;99.90
12811;DHT22;6470;47.654;7.896;2023-06-26T00:26:42;15.70;99.90
12811;DHT22;6470;47.654;7.896;2023-06-26T00:31:34;16.50;99.90
12811;DHT22;6470;47.654;7.896;2023-06-26T00:34:01;15.90;99.90
12811;DHT22;6470;47.654;7.896;2023-06-26T00:36:27;16.50;99.90
12811;DHT22;6470;47.654;7.896;2023-06-26T00:38:52;16.10;99.90
12811;DHT22;6470;47.654;7.896;2023-06-26T00:41:19;16.10;99.90
12811;DHT22;6470;47.654;7.896;2023-06-26T00:46:13;15.90;99.90
12811;DHT22;6470;47.654;7.896;2023-06-26T00:48:40;16.20;99.90
12811;DHT22;6470;47.654;7.896;2023-06-26T00:51:07;16.00;99.90
12811;DHT22;6470;47.654;7.896;2023-06-26T00:53:33;16.00;99.90
12811;DHT22;6470;47.654;7.896;2023-06-26T00:55:59;16.40;99.90
12811;DHT22;6470;47.654;7.896;2023-06-26T00:58:26;15.80;99.90
12811;DHT22;6470;47.654;7.896;2023-06-26T01:00:52;16.50;99.90
12811;DHT22;6470;47.654;7.896;2023-06-26T01:03:19;13.70;99.90
12811;DHT22;6470;47.654;7.896;2023-06-26T01:05:46;15.40;99.90
12811;DHT22;6470;47.654;7.896;2023-06-26T01:08:15;16.30;99.90
12811;DHT22;6470;47.654;7.896;2023-06-26T01:10:42;15.80;99.90
12811;DHT22;6470;47.654;7.896;2023-06-26T01:13:08;15.60;99.90
12811;DHT22;6470;47.654;7.896;2023-06-26T01:15:34;16.00;99.90
12811;DHT22;6470;47.654;7.896;2023-06-26T01:18:01;16.20;99.90
12811;DHT22;6470;47.654;7.896;2023-06-26T01:20:37;16.40;99.90
12811;DHT22;6470;47.654;7.896;2023-06-26T01:28:39;15.50;99.90
12811;DHT22;6470;47.654;7.896;2023-06-26T01:31:06;16.60;99.90
12811;DHT22;6470;47.654;7.896;2023-06-26T01:33:33;15.70;99.90
12811;DHT22;6470;47.654;7.896;2023-06-26T01:35:59;16.10;99.90
12811;DHT22;6470;47.654;7.896;2023-06-26T01:38:25;13.30;99.90
12811;DHT22;6470;47.654;7.896;2023-06-26T01:40:54;15.50;99.90
12811;DHT22;6470;47.654;7.896;2023-06-26T01:46:30;15.70;99.90
12811;DHT22;6470;47.654;7.896;2023-06-26T01:51:45;16.20;99.90
12811;DHT22;6470;47.654;7.896;2023-06-26T01:54:17;16.20;99.90
12811;DHT22;6470;47.654;7.896;2023-06-26T01:56:45;16.00;99.90
12811;DHT22;6470;47.654;7.896;2023-06-26T01:59:14;15.90;99.90
12811;DHT22;6470;47.654;7.896;2023-06-26T02:01:40;16.00;99.90
12811;DHT22;6470;47.654;7.896;2023-06-26T02:04:06;13.20;99.90
12811;DHT22;6470;47.654;7.896;2023-06-26T02:06:31;13.00;99.90
12811;DHT22;6470;47.654;7.896;2023-06-26T02:11:23;15.60;99.90
12811;DHT22;6470;47.654;7.896;2023-06-26T02:13:49;16.20;99.90
12811;DHT22;6470;47.654;7.896;2023-06-26T02:18:41;15.60;99.90
12811;DHT22;6470;47.654;7.896;2023-06-26T02:21:07;15.50;99.90
12811;DHT22;6470;47.654;7.896;2023-06-26T02:25:59;16.10;99.90
12811;DHT22;6470;47.654;7.896;2023-06-26T02:30:51;15.80;99.90
12811;DHT22;6470;47.654;7.896;2023-06-26T02:33:17;16.40;99.90
12811;DHT22;6470;47.654;7.896;2023-06-26T02:35:42;15.70;99.90
12811;DHT22;6470;47.654;7.896;2023-06-26T02:38:08;15.90;99.90
12811;DHT22;6470;47.654;7.896;2023-06-26T02:40:34;16.30;99.90
12811;DHT22;6470;47.654;7.896;2023-06-26T02:43:00;15.70;99.90
12811;DHT22;6470;47.654;7.896;2023-06-26T02:45:26;16.60;99.90
12811;DHT22;6470;47.654;7.896;2023-06-26T02:47:51;12.60;99.90
12811;DHT22;6470;47.654;7.896;2023-06-26T02:52:43;16.00;99.90
12811;DHT22;6470;47.654;7.896;2023-06-26T02:55:09;15.90;99.90
12811;DHT22;6470;47.654;7.896;2023-06-26T02:57:34;15.80;99.90
12811;DHT22;6470;47.654;7.896;2023-06-26T03:00:00;16.50;99.90
12811;DHT22;6470;47.654;7.896;2023-06-26T03:02:26;15.80;99.90
12811;DHT22;6470;47.654;7.896;2023-06-26T03:04:52;15.40;99.90
12811;DHT22;6470;47.654;7.896;2023-06-26T03:07:18;15.80;99.90
12811;DHT22;6470;47.654;7.896;2023-06-26T03:09:43;16.60;99.90
12811;DHT22;6470;47.654;7.896;2023-06-26T03:12:09;16.00;99.90
12811;DHT22;6470;47.654;7.896;2023-06-26T03:14:35;15.70;99.90
12811;DHT22;6470;47.654;7.896;2023-06-26T03:17:00;15.90;99.90
12811;DHT22;6470;47.654;7.896;2023-06-26T03:19:29;16.00;99.90
12811;DHT22;6470;47.654;7.896;2023-06-26T03:21:55;15.20;99.90
12811;DHT22;6470;47.654;7.896;2023-06-26T03:26:46;15.60;99.90
12811;DHT22;6470;47.654;7.896;2023-06-26T03:29:12;15.90;99.90
12811;DHT22;6470;47.654;7.896;2023-06-26T03:31:38;15.70;99.90
12811;DHT22;6470;47.654;7.896;2023-06-26T03:34:03;15.70;99.90
12811;DHT22;6470;47.654;7.896;2023-06-26T03:36:29;15.80;99.90
12811;DHT22;6470;47.654;7.896;2023-06-26T03:38:55;16.10;99.90
12811;DHT22;6470;47.654;7.896;2023-06-26T03:41:23;15.50;99.90
12811;DHT22;6470;47.654;7.896;2023-06-26T03:43:48;16.20;99.90
12811;DHT22;6470;47.654;7.896;2023-06-26T03:46:14;15.70;99.90
12811;DHT22;6470;47.654;7.896;2023-06-26T03:48:40;16.30;99.90
12811;DHT22;6470;47.654;7.896;2023-06-26T03:51:06;15.30;99.90
12811;DHT22;6470;47.654;7.896;2023-06-26T03:53:33;12.40;99.90
12811;DHT22;6470;47.654;7.896;2023-06-26T03:55:59;15.60;99.90
12811;DHT22;6470;47.654;7.896;2023-06-26T03:58:24;15.90;99.90
12811;DHT22;6470;47.654;7.896;2023-06-26T04:00:51;17.30;99.90
12811;DHT22;6470;47.654;7.896;2023-06-26T04:03:16;16.00;99.90
12811;DHT22;6470;47.654;7.896;2023-06-26T04:05:42;15.80;99.90
12811;DHT22;6470;47.654;7.896;2023-06-26T04:08:08;15.50;99.90
12811;DHT22;6470;47.654;7.896;2023-06-26T04:17:53;15.20;99.90
12811;DHT22;6470;47.654;7.896;2023-06-26T04:20:19;15.70;99.90
12811;DHT22;6470;47.654;7.896;2023-06-26T04:22:45;13.00;99.90
12811;DHT22;6470;47.654;7.896;2023-06-26T04:25:11;16.00;99.90
12811;DHT22;6470;47.654;7.896;2023-06-26T04:27:39;15.50;99.90
12811;DHT22;6470;47.654;7.896;2023-06-26T04:30:05;15.90;99.90
12811;DHT22;6470;47.654;7.896;2023-06-26T04:34:57;16.10;99.90
12811;DHT22;6470;47.654;7.896;2023-06-26T04:37:23;15.70;99.90
12811;DHT22;6470;47.654;7.896;2023-06-26T04:42:16;16.00;99.90
12811;DHT22;6470;47.654;7.896;2023-06-26T04:47:08;15.90;99.90
12811;DHT22;6470;47.654;7.896;2023-06-26T04:52:00;15.30;99.90
12811;DHT22;6470;47.654;7.896;2023-06-26T04:54:26;16.50;99.90
12811;DHT22;6470;47.654;7.896;2023-06-26T04:56:53;16.00;99.90
12811;DHT22;6470;47.654;7.896;2023-06-26T04:59:19;17.10;99.90
12811;DHT22;6470;47.654;7.896;2023-06-26T05:01:44;16.40;99.90
12811;DHT22;6470;47.654;7.896;2023-06-26T05:04:13;17.50;99.90
12811;DHT22;6470;47.654;7.896;2023-06-26T05:06:39;17.50;99.90
12811;DHT22;6470;47.654;7.896;2023-06-26T05:09:05;17.60;99.90
12811;DHT22;6470;47.654;7.896;2023-06-26T05:11:30;17.80;99.90
12811;DHT22;6470;47.654;7.896;2023-06-26T05:13:56;18.00;99.90
12811;DHT22;6470;47.654;7.896;2023-06-26T05:16:22;15.50;99.90
12811;DHT22;6470;47.654;7.896;2023-06-26T05:18:47;18.30;99.90
12811;DHT22;6470;47.654;7.896;2023-06-26T05:21:13;17.90;99.90
12811;DHT22;6470;47.654;7.896;2023-06-26T05:26:09;19.00;99.90
12811;DHT22;6470;47.654;7.896;2023-06-26T05:28:36;19.60;99.90
12811;DHT22;6470;47.654;7.896;2023-06-26T05:31:03;19.10;99.90
12811;DHT22;6470;47.654;7.896;2023-06-26T05:33:31;19.00;99.90
12811;DHT22;6470;47.654;7.896;2023-06-26T05:36:00;19.40;99.90
12811;DHT22;6470;47.654;7.896;2023-06-26T05:40:53;20.50;99.90
12811;DHT22;6470;47.654;7.896;2023-06-26T05:43:19;19.80;99.90
12811;DHT22;6470;47.654;7.896;2023-06-26T05:45:47;20.10;99.90
12811;DHT22;6470;47.654;7.896;2023-06-26T05:48:13;20.90;99.90
12811;DHT22;6470;47.654;7.896;2023-06-26T05:50:39;20.40;99.90
12811;DHT22;6470;47.654;7.896;2023-06-26T05:53:07;21.20;99.90
12811;DHT22;6470;47.654;7.896;2023-06-26T05:55:33;20.90;99.90
12811;DHT22;6470;47.654;7.896;2023-06-26T05:58:00;20.60;99.90
12811;DHT22;6470;47.654;7.896;2023-06-26T06:00:27;20.40;99.90
12811;DHT22;6470;47.654;7.896;2023-06-26T06:02:53;21.40;99.90
12811;DHT22;6470;47.654;7.896;2023-06-26T06:05:23;22.00;99.90
12811;DHT22;6470;47.654;7.896;2023-06-26T06:07:48;21.30;99.90
12811;DHT22;6470;47.654;7.896;2023-06-26T06:10:14;21.60;99.90
12811;DHT22;6470;47.654;7.896;2023-06-26T06:12:40;22.70;99.90
12811;DHT22;6470;47.654;7.896;2023-06-26T06:15:06;21.50;99.90
12811;DHT22;6470;47.654;7.896;2023-06-26T06:17:32;22.10;99.90
12811;DHT22;6470;47.654;7.896;2023-06-26T06:19:57;21.70;99.90
12811;DHT22;6470;47.654;7.896;2023-06-26T06:22:23;22.50;99.90
12811;DHT22;6470;47.654;7.896;2023-06-26T06:24:50;21.80;99.90
12811;DHT22;6470;47.654;7.896;2023-06-26T06:27:16;22.10;99.90
12811;DHT22;6470;47.654;7.896;2023-06-26T06:32:08;22.50;99.90
12811;DHT22;6470;47.654;7.896;2023-06-26T06:34:33;22.40;99.90
12811;DHT22;6470;47.654;7.896;2023-06-26T06:36:59;23.00;99.90
12811;DHT22;6470;47.654;7.896;2023-06-26T06:39:25;23.70;99.90
12811;DHT22;6470;47.654;7.896;2023-06-26T06:41:51;23.40;99.90
12811;DHT22;6470;47.654;7.896;2023-06-26T06:44:17;23.60;99.90
12811;DHT22;6470;47.654;7.896;2023-06-26T06:46:43;20.90;99.90
12811;DHT22;6470;47.654;7.896;2023-06-26T06:49:09;23.50;99.90
12811;DHT22;6470;47.654;7.896;2023-06-26T06:51:34;24.00;99.90
12811;DHT22;6470;47.654;7.896;2023-06-26T06:54:00;24.40;99.90
12811;DHT22;6470;47.654;7.896;2023-06-26T06:56:26;25.40;99.90
12811;DHT22;6470;47.654;7.896;2023-06-26T06:58:52;25.70;99.90
12811;DHT22;6470;47.654;7.896;2023-06-26T07:01:17;25.50;99.90
12811;DHT22;6470;47.654;7.896;2023-06-26T07:03:43;25.60;99.90
12811;DHT22;6470;47.654;7.896;2023-06-26T07:06:09;25.50;99.90
12811;DHT22;6470;47.654;7.896;2023-06-26T07:11:01;25.60;99.90
12811;DHT22;6470;47.654;7.896;2023-06-26T07:13:27;25.90;99.90
12811;DHT22;6470;47.654;7.896;2023-06-26T07:15:52;25.70;99.90
12811;DHT22;6470;47.654;7.896;2023-06-26T07:18:18;25.60;99.90
12811;DHT22;6470;47.654;7.896;2023-06-26T07:20:44;25.80;99.90
12811;DHT22;6470;47.654;7.896;2023-06-26T07:23:09;25.80;99.90
12811;DHT22;6470;47.654;7.896;2023-06-26T07:28:01;26.20;99.90
12811;DHT22;6470;47.654;7.896;2023-06-26T07:30:27;25.50;99.90
12811;DHT22;6470;47.654;7.896;2023-06-26T07:32:53;26.20;99.90
12811;DHT22;6470;47.654;7.896;2023-06-26T07:35:19;26.10;99.90
12811;DHT22;6470;47.654;7.896;2023-06-26T07:40:11;26.70;99.90
12811;DHT22;6470;47.654;7.896;2023-06-26T07:42:37;26.50;99.90
12811;DHT22;6470;47.654;7.896;2023-06-26T07:45:03;25.30;99.90
12811;DHT22;6470;47.654;7.896;2023-06-26T07:47:37;27.00;99.90
12811;DHT22;6470;47.654;7.896;2023-06-26T07:50:03;27.30;99.90
12811;DHT22;6470;47.654;7.896;2023-06-26T07:54:58;27.40;99.90
12811;DHT22;6470;47.654;7.896;2023-06-26T07:57:24;27.30;99.90
12811;DHT22;6470;47.654;7.896;2023-06-26T07:59:50;28.20;99.90
12811;DHT22;6470;47.654;7.896;2023-06-26T08:02:16;27.90;99.90
12811;DHT22;6470;47.654;7.896;2023-06-26T08:04:43;28.20;99.90
12811;DHT22;6470;47.654;7.896;2023-06-26T08:07:08;27.60;99.90
12811;DHT22;6470;47.654;7.896;2023-06-26T08:09:34;27.40;99.90
12811;DHT22;6470;47.654;7.896;2023-06-26T08:12:00;28.60;99.90
12811;DHT22;6470;47.654;7.896;2023-06-26T08:14:26;27.70;99.90
12811;DHT22;6470;47.654;7.896;2023-06-26T08:16:52;28.80;99.90
12811;DHT22;6470;47.654;7.896;2023-06-26T08:19:18;29.10;99.90
12811;DHT22;6470;47.654;7.896;2023-06-26T08:21:44;28.00;99.90
12811;DHT22;6470;47.654;7.896;2023-06-26T08:24:11;27.60;99.90
12811;DHT22;6470;47.654;7.896;2023-06-26T08:26:38;28.30;99.90
12811;DHT22;6470;47.654;7.896;2023-06-26T08:31:37;27.90;99.90
12811;DHT22;6470;47.654;7.896;2023-06-26T08:34:04;27.70;99.90
12811;DHT22;6470;47.654;7.896;2023-06-26T08:36:30;28.80;99.90
12811;DHT22;6470;47.654;7.896;2023-06-26T08:38:56;28.30;99.90
12811;DHT22;6470;47.654;7.896;2023-06-26T08:41:22;28.20;99.90
12811;DHT22;6470;47.654;7.896;2023-06-26T08:43:48;27.70;99.90
12811;DHT22;6470;47.654;7.896;2023-06-26T08:46:16;28.50;99.90
12811;DHT22;6470;47.654;7.896;2023-06-26T08:48:48;28.20;99.90
12811;DHT22;6470;47.654;7.896;2023-06-26T08:51:16;28.80;99.90
12811;DHT22;6470;47.654;7.896;2023-06-26T08:56:22;28.60;99.90
12811;DHT22;6470;47.654;7.896;2023-06-26T08:58:49;28.60;99.90
12811;DHT22;6470;47.654;7.896;2023-06-26T09:01:16;29.60;99.90
12811;DHT22;6470;47.654;7.896;2023-06-26T09:03:43;28.50;99.90
12811;DHT22;6470;47.654;7.896;2023-06-26T09:06:08;28.40;99.90
12811;DHT22;6470;47.654;7.896;2023-06-26T09:11:00;28.70;99.90
12811;DHT22;6470;47.654;7.896;2023-06-26T09:13:28;28.60;99.90
12811;DHT22;6470;47.654;7.896;2023-06-26T09:15:55;29.10;99.90
12811;DHT22;6470;47.654;7.896;2023-06-26T09:18:22;29.30;99.90
12811;DHT22;6470;47.654;7.896;2023-06-26T09:20:48;26.10;99.90
12811;DHT22;6470;47.654;7.896;2023-06-26T09:23:14;29.30;99.90
12811;DHT22;6470;47.654;7.896;2023-06-26T09:25:40;29.60;99.90
12811;DHT22;6470;47.654;7.896;2023-06-26T09:28:07;29.40;99.90
12811;DHT22;6470;47.654;7.896;2023-06-26T09:30:34;29.10;99.90
12811;DHT22;6470;47.654;7.896;2023-06-26T09:33:18;30.20;99.90
12811;DHT22;6470;47.654;7.896;2023-06-26T09:35:44;29.00;99.90
12811;DHT22;6470;47.654;7.896;2023-06-26T09:38:11;29.60;99.90
12811;DHT22;6470;47.654;7.896;2023-06-26T09:40:37;29.90;99.90
12811;DHT22;6470;47.654;7.896;2023-06-26T09:43:09;30.20;99.90
12811;DHT22;6470;47.654;7.896;2023-06-26T09:45:35;29.90;99.90
12811;DHT22;6470;47.654;7.896;2023-06-26T09:48:05;29.30;99.90
12811;DHT22;6470;47.654;7.896;2023-06-26T09:50:34;29.50;99.90
12811;DHT22;6470;47.654;7.896;2023-06-26T09:53:11;29.30;99.90
12811;DHT22;6470;47.654;7.896;2023-06-26T09:55:39;29.60;99.90
12811;DHT22;6470;47.654;7.896;2023-06-26T09:58:06;29.60;99.90
12811;DHT22;6470;47.654;7.896;2023-06-26T10:00:32;29.20;99.90
12811;DHT22;6470;47.654;7.896;2023-06-26T10:02:59;29.90;99.90
12811;DHT22;6470;47.654;7.896;2023-06-26T10:05:26;29.70;99.90
12811;DHT22;6470;47.654;7.896;2023-06-26T10:07:53;29.30;99.90
12811;DHT22;6470;47.654;7.896;2023-06-26T10:10:19;29.20;99.90
12811;DHT22;6470;47.654;7.896;2023-06-26T10:12:51;29.20;99.90
12811;DHT22;6470;47.654;7.896;2023-06-26T10:15:21;28.50;99.90
12811;DHT22;6470;47.654;7.896;2023-06-26T10:17:49;28.70;99.90
12811;DHT22;6470;47.654;7.896;2023-06-26T10:20:15;28.70;99.90
12811;DHT22;6470;47.654;7.896;2023-06-26T10:22:45;29.00;99.90
12811;DHT22;6470;47.654;7.896;2023-06-26T10:25:16;29.10;99.90
12811;DHT22;6470;47.654;7.896;2023-06-26T10:27:45;29.10;99.90
12811;DHT22;6470;47.654;7.896;2023-06-26T10:30:22;26.70;99.90
12811;DHT22;6470;47.654;7.896;2023-06-26T10:32:48;29.40;99.90
12811;DHT22;6470;47.654;7.896;2023-06-26T10:35:14;29.10;99.90
12811;DHT22;6470;47.654;7.896;2023-06-26T10:37:48;29.10;99.90
12811;DHT22;6470;47.654;7.896;2023-06-26T10:40:17;29.30;99.90
12811;DHT22;6470;47.654;7.896;2023-06-26T10:42:46;29.90;99.90
12811;DHT22;6470;47.654;7.896;2023-06-26T10:45:22;28.60;99.90
12811;DHT22;6470;47.654;7.896;2023-06-26T10:47:52;29.30;99.90
12811;DHT22;6470;47.654;7.896;2023-06-26T10:50:29;29.40;99.90
12811;DHT22;6470;47.654;7.896;2023-06-26T10:53:10;29.80;99.90
12811;DHT22;6470;47.654;7.896;2023-06-26T10:55:42;28.80;99.90
12811;DHT22;6470;47.654;7.896;2023-06-26T10:58:29;29.40;99.90
12811;DHT22;6470;47.654;7.896;2023-06-26T11:01:21;29.00;99.90
12811;DHT22;6470;47.654;7.896;2023-06-26T11:06:19;30.40;99.90
12811;DHT22;6470;47.654;7.896;2023-06-26T11:08:53;30.00;99.90
12811;DHT22;6470;47.654;7.896;2023-06-26T11:11:21;30.00;99.90
12811;DHT22;6470;47.654;7.896;2023-06-26T11:13:47;29.90;99.90
12811;DHT22;6470;47.654;7.896;2023-06-26T11:16:14;30.30;99.90
12811;DHT22;6470;47.654;7.896;2023-06-26T11:18:40;30.30;99.90
12811;DHT22;6470;47.654;7.896;2023-06-26T11:21:09;30.00;99.90
12811;DHT22;6470;47.654;7.896;2023-06-26T11:23:37;29.80;99.90
12811;DHT22;6470;47.654;7.896;2023-06-26T11:26:20;29.90;99.90
12811;DHT22;6470;47.654;7.896;2023-06-26T11:28:56;28.90;99.90
12811;DHT22;6470;47.654;7.896;2023-06-26T11:31:29;29.50;99.90
12811;DHT22;6470;47.654;7.896;2023-06-26T11:34:03;29.50;99.90
12811;DHT22;6470;47.654;7.896;2023-06-26T11:36:30;29.30;99.90
12811;DHT22;6470;47.654;7.896;2023-06-26T11:39:00;28.60;99.90
12811;DHT22;6470;47.654;7.896;2023-06-26T11:41:29;28.40;99.90
12811;DHT22;6470;47.654;7.896;2023-06-26T11:43:56;29.70;99.90
12811;DHT22;6470;47.654;7.896;2023-06-26T11:46:22;29.70;99.90
12811;DHT22;6470;47.654;7.896;2023-06-26T11:48:50;29.50;99.90
12811;DHT22;6470;47.654;7.896;2023-06-26T11:51:17;29.60;99.90
12811;DHT22;6470;47.654;7.896;2023-06-26T11:53:44;30.00;99.90
12811;DHT22;6470;47.654;7.896;2023-06-26T11:56:11;29.60;99.90
12811;DHT22;6470;47.654;7.896;2023-06-26T11:59:06;29.90;99.90
12811;DHT22;6470;47.654;7.896;2023-06-26T12:01:41;29.50;99.90
12811;DHT22;6470;47.654;7.896;2023-06-26T12:04:09;29.10;99.90
12811;DHT22;6470;47.654;7.896;2023-06-26T12:06:37;29.90;99.90
12811;DHT22;6470;47.654;7.896;2023-06-26T12:09:09;28.90;99.90
12811;DHT22;6470;47.654;7.896;2023-06-26T12:11:38;29.10;99.90
12811;DHT22;6470;47.654;7.896;2023-06-26T12:14:06;29.40;99.90
12811;DHT22;6470;47.654;7.896;2023-06-26T12:16:33;30.20;99.90
12811;DHT22;6470;47.654;7.896;2023-06-26T12:19:00;29.90;99.90
12811;DHT22;6470;47.654;7.896;2023-06-26T12:24:08;30.20;99.90
12811;DHT22;6470;47.654;7.896;2023-06-26T12:26:34;28.90;99.90
12811;DHT22;6470;47.654;7.896;2023-06-26T12:29:10;29.90;99.90
12811;DHT22;6470;47.654;7.896;2023-06-26T12:31:46;30.70;99.90
12811;DHT22;6470;47.654;7.896;2023-06-26T12:34:15;30.00;99.90
12811;DHT22;6470;47.654;7.896;2023-06-26T12:36:50;30.60;99.90
12811;DHT22;6470;47.654;7.896;2023-06-26T12:39:18;29.80;99.90
12811;DHT22;6470;47.654;7.896;2023-06-26T12:41:48;30.60;99.90
12811;DHT22;6470;47.654;7.896;2023-06-26T12:44:18;30.20;99.90
12811;DHT22;6470;47.654;7.896;2023-06-26T12:46:47;29.50;99.90
12811;DHT22;6470;47.654;7.896;2023-06-26T12:49:13;29.50;99.90
12811;DHT22;6470;47.654;7.896;2023-06-26T12:51:39;29.80;99.90
12811;DHT22;6470;47.654;7.896;2023-06-26T12:54:05;30.20;99.90
12811;DHT22;6470;47.654;7.896;2023-06-26T12:56:31;29.40;99.90
12811;DHT22;6470;47.654;7.896;2023-06-26T12:58:57;29.70;99.90
12811;DHT22;6470;47.654;7.896;2023-06-26T13:01:23;30.10;99.90
12811;DHT22;6470;47.654;7.896;2023-06-26T13:03:50;29.10;99.90
12811;DHT22;6470;47.654;7.896;2023-06-26T13:06:17;29.80;99.90
12811;DHT22;6470;47.654;7.896;2023-06-26T13:08:42;29.20;99.90
12811;DHT22;6470;47.654;7.896;2023-06-26T13:11:09;30.10;99.90
12811;DHT22;6470;47.654;7.896;2023-06-26T13:13:34;29.30;99.90
12811;DHT22;6470;47.654;7.896;2023-06-26T13:16:00;29.40;99.90
12811;DHT22;6470;47.654;7.896;2023-06-26T13:18:26;29.90;99.90
12811;DHT22;6470;47.654;7.896;2023-06-26T13:20:51;30.70;99.90
12811;DHT22;6470;47.654;7.896;2023-06-26T13:23:17;29.90;99.90
12811;DHT22;6470;47.654;7.896;2023-06-26T13:25:45;27.00;99.90
12811;DHT22;6470;47.654;7.896;2023-06-26T13:28:10;30.30;99.90
12811;DHT22;6470;47.654;7.896;2023-06-26T13:30:36;30.10;99.90
12811;DHT22;6470;47.654;7.896;2023-06-26T13:33:02;28.80;99.90
12811;DHT22;6470;47.654;7.896;2023-06-26T13:35:28;30.20;99.90
12811;DHT22;6470;47.654;7.896;2023-06-26T13:37:54;29.90;99.90
12811;DHT22;6470;47.654;7.896;2023-06-26T13:40:19;29.80;99.90
12811;DHT22;6470;47.654;7.896;2023-06-26T13:42:45;29.80;99.90
12811;DHT22;6470;47.654;7.896;2023-06-26T13:45:11;30.30;99.90
12811;DHT22;6470;47.654;7.896;2023-06-26T13:47:37;30.30;99.90
12811;DHT22;6470;47.654;7.896;2023-06-26T13:50:07;30.00;99.90
12811;DHT22;6470;47.654;7.896;2023-06-26T13:52:33;30.10;99.90
12811;DHT22;6470;47.654;7.896;2023-06-26T13:57:25;29.40;99.90
12811;DHT22;6470;47.654;7.896;2023-06-26T13:59:53;29.10;99.90
12811;DHT22;6470;47.654;7.896;2023-06-26T14:02:18;29.90;99.90
12811;DHT22;6470;47.654;7.896;2023-06-26T14:04:44;31.10;99.90
12811;DHT22;6470;47.654;7.896;2023-06-26T14:09:36;30.30;99.90
12811;DHT22;6470;47.654;7.896;2023-06-26T14:12:02;29.80;99.90
12811;DHT22;6470;47.654;7.896;2023-06-26T14:14:27;30.50;99.90
12811;DHT22;6470;47.654;7.896;2023-06-26T14:16:53;29.50;99.90
12811;DHT22;6470;47.654;7.896;2023-06-26T14:19:19;29.60;99.90
12811;DHT22;6470;47.654;7.896;2023-06-26T14:21:45;29.70;99.90
12811;DHT22;6470;47.654;7.896;2023-06-26T14:24:10;29.30;99.90
12811;DHT22;6470;47.654;7.896;2023-06-26T14:26:36;29.40;99.90
12811;DHT22;6470;47.654;7.896;2023-06-26T14:29:02;30.00;99.90
12811;DHT22;6470;47.654;7.896;2023-06-26T14:31:28;29.50;99.90
12811;DHT22;6470;47.654;7.896;2023-06-26T14:33:54;29.90;99.90
12811;DHT22;6470;47.654;7.896;2023-06-26T14:36:19;29.40;99.90
12811;DHT22;6470;47.654;7.896;2023-06-26T14:38:45;30.50;99.90
12811;DHT22;6470;47.654;7.896;2023-06-26T14:41:11;29.70;99.90
12811;DHT22;6470;47.654;7.896;2023-06-26T14:46:49;30.70;99.90
12811;DHT22;6470;47.654;7.896;2023-06-26T14:49:15;30.20;99.90
12811;DHT22;6470;47.654;7.896;2023-06-26T14:51:41;29.50;99.90
12811;DHT22;6470;47.654;7.896;2023-06-26T14:54:06;29.20;99.90
12811;DHT22;6470;47.654;7.896;2023-06-26T14:56:32;29.40;99.90
12811;DHT22;6470;47.654;7.896;2023-06-26T14:58:58;29.50;99.90
12811;DHT22;6470;47.654;7.896;2023-06-26T15:01:23;30.40;99.90
12811;DHT22;6470;47.654;7.896;2023-06-26T15:03:49;30.60;99.90
12811;DHT22;6470;47.654;7.896;2023-06-26T15:06:15;29.40;99.90
12811;DHT22;6470;47.654;7.896;2023-06-26T15:08:41;29.80;99.90
12811;DHT22;6470;47.654;7.896;2023-06-26T15:11:06;29.80;99.90
12811;DHT22;6470;47.654;7.896;2023-06-26T15:13:32;30.60;99.90
12811;DHT22;6470;47.654;7.896;2023-06-26T15:15:58;29.40;99.90
12811;DHT22;6470;47.654;7.896;2023-06-26T15:18:23;29.20;99.90
12811;DHT22;6470;47.654;7.896;2023-06-26T15:20:49;29.60;99.90
12811;DHT22;6470;47.654;7.896;2023-06-26T15:23:15;27.40;99.90
12811;DHT22;6470;47.654;7.896;2023-06-26T15:25:40;30.50;99.90
12811;DHT22;6470;47.654;7.896;2023-06-26T15:28:06;29.40;99.90
12811;DHT22;6470;47.654;7.896;2023-06-26T15:30:32;29.40;99.90
12811;DHT22;6470;47.654;7.896;2023-06-26T15:32:58;29.70;99.90
12811;DHT22;6470;47.654;7.896;2023-06-26T15:35:24;29.00;99.90
12811;DHT22;6470;47.654;7.896;2023-06-26T15:37:50;29.80;99.90
12811;DHT22;6470;47.654;7.896;2023-06-26T15:40:16;29.60;99.90
12811;DHT22;6470;47.654;7.896;2023-06-26T15:42:49;30.20;99.90
12811;DHT22;6470;47.654;7.896;2023-06-26T15:45:16;29.60;99.90
12811;DHT22;6470;47.654;7.896;2023-06-26T15:47:47;30.00;99.90
12811;DHT22;6470;47.654;7.896;2023-06-26T15:50:13;30.70;99.90
12811;DHT22;6470;47.654;7.896;2023-06-26T15:52:39;30.30;99.90
12811;DHT22;6470;47.654;7.896;2023-06-26T15:55:05;29.90;99.90
12811;DHT22;6470;47.654;7.896;2023-06-26T15:57:31;29.90;99.90
12811;DHT22;6470;47.654;7.896;2023-06-26T15:59:57;29.80;99.90
12811;DHT22;6470;47.654;7.896;2023-06-26T16:02:23;28.30;99.90
12811;DHT22;6470;47.654;7.896;2023-06-26T16:04:49;29.20;99.90
12811;DHT22;6470;47.654;7.896;2023-06-26T16:07:16;29.60;99.90
12811;DHT22;6470;47.654;7.896;2023-06-26T16:09:42;30.10;99.90
12811;DHT22;6470;47.654;7.896;2023-06-26T16:12:08;29.40;99.90
12811;DHT22;6470;47.654;7.896;2023-06-26T16:14:34;29.90;99.90
12811;DHT22;6470;47.654;7.896;2023-06-26T16:16:59;29.60;99.90
12811;DHT22;6470;47.654;7.896;2023-06-26T16:19:26;29.00;99.90
12811;DHT22;6470;47.654;7.896;2023-06-26T16:21:52;30.10;99.90
12811;DHT22;6470;47.654;7.896;2023-06-26T16:24:17;30.40;99.90
12811;DHT22;6470;47.654;7.896;2023-06-26T16:26:43;30.40;99.90
12811;DHT22;6470;47.654;7.896;2023-06-26T16:29:09;29.40;99.90
12811;DHT22;6470;47.654;7.896;2023-06-26T16:31:34;29.20;99.90
12811;DHT22;6470;47.654;7.896;2023-06-26T16:34:00;29.10;99.90
12811;DHT22;6470;47.654;7.896;2023-06-26T16:36:26;26.60;99.90
12811;DHT22;6470;47.654;7.896;2023-06-26T16:38:53;30.10;99.90
12811;DHT22;6470;47.654;7.896;2023-06-26T16:41:19;30.10;99.90
12811;DHT22;6470;47.654;7.896;2023-06-26T16:43:45;30.60;99.90
12811;DHT22;6470;47.654;7.896;2023-06-26T16:46:11;30.40;99.90
12811;DHT22;6470;47.654;7.896;2023-06-26T16:51:03;29.40;99.90
12811;DHT22;6470;47.654;7.896;2023-06-26T16:53:28;30.10;99.90
12811;DHT22;6470;47.654;7.896;2023-06-26T16:55:54;29.50;99.90
12811;DHT22;6470;47.654;7.896;2023-06-26T16:58:20;27.80;99.90
12811;DHT22;6470;47.654;7.896;2023-06-26T17:00:47;28.50;99.90
12811;DHT22;6470;47.654;7.896;2023-06-26T17:03:13;27.70;99.90
12811;DHT22;6470;47.654;7.896;2023-06-26T17:05:39;28.30;99.90
12811;DHT22;6470;47.654;7.896;2023-06-26T17:08:05;28.10;99.90
12811;DHT22;6470;47.654;7.896;2023-06-26T17:10:34;28.90;99.90
12811;DHT22;6470;47.654;7.896;2023-06-26T17:13:00;28.80;99.90
12811;DHT22;6470;47.654;7.896;2023-06-26T17:15:26;29.30;99.90
12811;DHT22;6470;47.654;7.896;2023-06-26T17:17:51;28.50;99.90
12811;DHT22;6470;47.654;7.896;2023-06-26T17:20:18;28.30;99.90